sensor_id;sensor_type;location;lat;lon;timestamp;temperature;humidity
26081;DHT22;13991;51.174;4.438;2022-09-09T00:00:24;17.30;99.90
26081;DHT22;13991;51.174;4.438;2022-09-09T00:03:13;17.20;99.90
26081;DHT22;13991;51.174;4.438;2022-09-09T00:06:02;17.30;99.90
26081;DHT22;13991;51.174;4.438;2022-09-09T00:14:47;17.10;99.90
26081;DHT22;13991;51.174;4.438;2022-09-09T00:18:05;17.10;99.90
26081;DHT22;13991;51.174;4.438;2022-09-09T00:23:12;17.10;99.90
26081;DHT22;13991;51.174;4.438;2022-09-09T00:25:49;17.10;99.90
26081;DHT22;13991;51.174;4.438;2022-09-09T00:28:20;17.10;99.90
26081;DHT22;13991;51.174;4.438;2022-09-09T00:30:47;17.10;99.90
26081;DHT22;13991;51.174;4.438;2022-09-09T00:33:16;17.10;99.90
26081;DHT22;13991;51.174;4.438;2022-09-09T00:36:04;17.10;99.90
26081;DHT22;13991;51.174;4.438;2022-09-09T00:38:38;17.00;99.90
26081;DHT22;13991;51.174;4.438;2022-09-09T00:41:22;17.00;99.90
26081;DHT22;13991;51.174;4.438;2022-09-09T00:44:15;17.00;99.90
26081;DHT22;13991;51.174;4.438;2022-09-09T00:47:16;17.00;99.90
26081;DHT22;13991;51.174;4.438;2022-09-09T00:49:59;17.00;99.90
26081;DHT22;13991;51.174;4.438;2022-09-09T00:57:51;17.00;99.90
26081;DHT22;13991;51.174;4.438;2022-09-09T01:03:12;17.00;99.90
26081;DHT22;13991;51.174;4.438;2022-09-09T01:06:15;17.00;99.90
26081;DHT22;13991;51.174;4.438;2022-09-09T01:08:57;17.00;99.90
26081;DHT22;13991;51.174;4.438;2022-09-09T01:11:37;17.00;99.90
26081;DHT22;13991;51.174;4.438;2022-09-09T01:17:00;17.00;99.90
26081;DHT22;13991;51.174;4.438;2022-09-09T01:22:34;17.00;99.90
26081;DHT22;13991;51.174;4.438;2022-09-09T01:27:48;17.00;99.90
26081;DHT22;13991;51.174;4.438;2022-09-09T01:30:17;17.00;99.90
26081;DHT22;13991;51.174;4.438;2022-09-09T01:32:46;17.00;99.90
26081;DHT22;13991;51.174;4.438;2022-09-09T01:38:03;17.00;99.90
26081;DHT22;13991;51.174;4.438;2022-09-09T01:40:29;17.00;99.90
26081;DHT22;13991;51.174;4.438;2022-09-09T01:42:55;16.90;99.90
26081;DHT22;13991;51.174;4.438;2022-09-09T01:45:21;16.90;99.90
26081;DHT22;13991;51.174;4.438;2022-09-09T01:47:47;16.90;99.90
26081;DHT22;13991;51.174;4.438;2022-09-09T01:50:16;17.00;99.90
26081;DHT22;13991;51.174;4.438;2022-09-09T01:52:44;17.00;99.90
26081;DHT22;13991;51.174;4.438;2022-09-09T01:55:10;16.90;99.90
26081;DHT22;13991;51.174;4.438;2022-09-09T02:00:29;17.00;99.90
26081;DHT22;13991;51.174;4.438;2022-09-09T02:03:12;16.90;99.90
26081;DHT22;13991;51.174;4.438;2022-09-09T02:05:52;16.90;99.90
26081;DHT22;13991;51.174;4.438;2022-09-09T02:08:24;16.90;99.90
26081;DHT22;13991;51.174;4.438;2022-09-09T02:11:13;16.90;99.90
26081;DHT22;13991;51.174;4.438;2022-09-09T02:13:39;16.90;99.90
26081;DHT22;13991;51.174;4.438;2022-09-09T02:21:18;16.90;99.90
26081;DHT22;13991;51.174;4.438;2022-09-09T02:23:47;16.90;99.90
26081;DHT22;13991;51.174;4.438;2022-09-09T02:26:18;16.80;99.90
26081;DHT22;13991;51.174;4.438;2022-09-09T02:28:51;16.80;99.90
26081;DHT22;13991;51.174;4.438;2022-09-09T02:31:21;16.80;99.90
26081;DHT22;13991;51.174;4.438;2022-09-09T02:33:53;16.80;99.90
26081;DHT22;13991;51.174;4.438;2022-09-09T02:36:20;16.80;99.90
26081;DHT22;13991;51.174;4.438;2022-09-09T02:38:48;16.80;99.90
26081;DHT22;13991;51.174;4.438;2022-09-09T02:41:18;16.80;99.90
26081;DHT22;13991;51.174;4.438;2022-09-09T02:43:44;16.80;99.90
26081;DHT22;13991;51.174;4.438;2022-09-09T02:49:03;16.80;99.90
26081;DHT22;13991;51.174;4.438;2022-09-09T02:56:51;16.80;99.90
26081;DHT22;13991;51.174;4.438;2022-09-09T02:59:20;16.80;99.90
26081;DHT22;13991;51.174;4.438;2022-09-09T03:01:46;16.80;99.90
26081;DHT22;13991;51.174;4.438;2022-09-09T03:04:12;16.80;99.90
26081;DHT22;13991;51.174;4.438;2022-09-09T03:06:38;16.80;99.90
26081;DHT22;13991;51.174;4.438;2022-09-09T03:09:04;16.70;99.90
26081;DHT22;13991;51.174;4.438;2022-09-09T03:11:30;16.70;99.90
26081;DHT22;13991;51.174;4.438;2022-09-09T03:13:55;16.70;99.90
26081;DHT22;13991;51.174;4.438;2022-09-09T03:16:23;16.70;99.90
26081;DHT22;13991;51.174;4.438;2022-09-09T03:18:48;16.80;99.90
26081;DHT22;13991;51.174;4.438;2022-09-09T03:21:14;16.70;99.90
26081;DHT22;13991;51.174;4.438;2022-09-09T03:23:40;16.80;99.90
26081;DHT22;13991;51.174;4.438;2022-09-09T03:26:06;16.70;99.90
26081;DHT22;13991;51.174;4.438;2022-09-09T03:28:32;16.70;99.90
26081;DHT22;13991;51.174;4.438;2022-09-09T03:31:03;16.70;99.90
26081;DHT22;13991;51.174;4.438;2022-09-09T03:33:29;16.70;99.90
26081;DHT22;13991;51.174;4.438;2022-09-09T03:35:56;16.70;99.90
26081;DHT22;13991;51.174;4.438;2022-09-09T03:38:23;16.70;99.90
26081;DHT22;13991;51.174;4.438;2022-09-09T03:40:54;16.70;99.90
26081;DHT22;13991;51.174;4.438;2022-09-09T03:43:24;16.70;99.90
26081;DHT22;13991;51.174;4.438;2022-09-09T03:45:50;16.70;99.90
26081;DHT22;13991;51.174;4.438;2022-09-09T03:48:17;16.80;99.90
26081;DHT22;13991;51.174;4.438;2022-09-09T03:50:46;16.70;99.90
26081;DHT22;13991;51.174;4.438;2022-09-09T03:53:13;16.70;99.90
26081;DHT22;13991;51.174;4.438;2022-09-09T03:55:39;16.80;99.90
26081;DHT22;13991;51.174;4.438;2022-09-09T03:58:08;16.80;99.90
26081;DHT22;13991;51.174;4.438;2022-09-09T04:00:34;16.80;99.90
26081;DHT22;13991;51.174;4.438;2022-09-09T04:02:59;16.90;99.90
26081;DHT22;13991;51.174;4.438;2022-09-09T04:05:26;16.90;99.90
26081;DHT22;13991;51.174;4.438;2022-09-09T04:07:52;16.90;99.90
26081;DHT22;13991;51.174;4.438;2022-09-09T04:10:18;16.90;99.90
26081;DHT22;13991;51.174;4.438;2022-09-09T04:12:43;16.80;99.90
26081;DHT22;13991;51.174;4.438;2022-09-09T04:15:09;16.80;99.90
26081;DHT22;13991;51.174;4.438;2022-09-09T04:17:36;16.90;99.90
26081;DHT22;13991;51.174;4.438;2022-09-09T04:20:02;16.80;99.90
26081;DHT22;13991;51.174;4.438;2022-09-09T04:22:28;16.90;99.90
26081;DHT22;13991;51.174;4.438;2022-09-09T04:24:53;16.90;99.90
26081;DHT22;13991;51.174;4.438;2022-09-09T04:27:19;16.90;99.90
26081;DHT22;13991;51.174;4.438;2022-09-09T04:29:44;16.90;99.90
26081;DHT22;13991;51.174;4.438;2022-09-09T04:32:10;17.00;99.90
26081;DHT22;13991;51.174;4.438;2022-09-09T04:34:36;17.00;99.90
26081;DHT22;13991;51.174;4.438;2022-09-09T04:37:01;17.00;99.90
26081;DHT22;13991;51.174;4.438;2022-09-09T04:39:27;17.00;99.90
26081;DHT22;13991;51.174;4.438;2022-09-09T04:41:53;16.90;99.90
26081;DHT22;13991;51.174;4.438;2022-09-09T04:44:18;16.90;99.90
26081;DHT22;13991;51.174;4.438;2022-09-09T04:46:44;16.90;99.90
26081;DHT22;13991;51.174;4.438;2022-09-09T04:49:10;16.80;99.90
26081;DHT22;13991;51.174;4.438;2022-09-09T04:51:35;16.90;99.90
26081;DHT22;13991;51.174;4.438;2022-09-09T04:54:01;16.80;99.90
26081;DHT22;13991;51.174;4.438;2022-09-09T04:56:27;16.80;99.90
26081;DHT22;13991;51.174;4.438;2022-09-09T04:58:53;16.70;99.90
26081;DHT22;13991;51.174;4.438;2022-09-09T05:01:21;16.80;99.90
26081;DHT22;13991;51.174;4.438;2022-09-09T05:03:47;16.80;99.90
26081;DHT22;13991;51.174;4.438;2022-09-09T05:06:18;16.90;99.90
26081;DHT22;13991;51.174;4.438;2022-09-09T05:08:44;16.90;99.90
26081;DHT22;13991;51.174;4.438;2022-09-09T05:11:30;16.90;99.90
26081;DHT22;13991;51.174;4.438;2022-09-09T05:13:57;17.00;99.90
26081;DHT22;13991;51.174;4.438;2022-09-09T05:16:23;16.90;99.90
26081;DHT22;13991;51.174;4.438;2022-09-09T05:18:49;16.90;99.90
26081;DHT22;13991;51.174;4.438;2022-09-09T05:21:17;17.00;99.90
26081;DHT22;13991;51.174;4.438;2022-09-09T05:23:44;17.00;99.90
26081;DHT22;13991;51.174;4.438;2022-09-09T05:26:15;16.90;99.90
26081;DHT22;13991;51.174;4.438;2022-09-09T05:28:41;16.90;99.90
26081;DHT22;13991;51.174;4.438;2022-09-09T05:31:09;16.90;99.90
26081;DHT22;13991;51.174;4.438;2022-09-09T05:33:38;16.90;99.90
26081;DHT22;13991;51.174;4.438;2022-09-09T05:36:26;17.00;99.90
26081;DHT22;13991;51.174;4.438;2022-09-09T05:38:52;17.10;99.90
26081;DHT22;13991;51.174;4.438;2022-09-09T05:41:20;17.10;99.90
26081;DHT22;13991;51.174;4.438;2022-09-09T05:43:46;17.10;99.90
26081;DHT22;13991;51.174;4.438;2022-09-09T05:46:24;17.20;99.90
26081;DHT22;13991;51.174;4.438;2022-09-09T05:48:51;17.10;99.90
26081;DHT22;13991;51.174;4.438;2022-09-09T05:51:20;17.20;99.90
26081;DHT22;13991;51.174;4.438;2022-09-09T05:53:47;17.30;99.90
26081;DHT22;13991;51.174;4.438;2022-09-09T05:56:14;17.30;99.90
26081;DHT22;13991;51.174;4.438;2022-09-09T05:58:41;17.30;99.90
26081;DHT22;13991;51.174;4.438;2022-09-09T06:01:29;17.30;99.90
26081;DHT22;13991;51.174;4.438;2022-09-09T06:03:55;17.40;99.90
26081;DHT22;13991;51.174;4.438;2022-09-09T06:06:24;17.40;99.90
26081;DHT22;13991;51.174;4.438;2022-09-09T06:08:52;17.40;99.90
26081;DHT22;13991;51.174;4.438;2022-09-09T06:11:38;17.30;99.90
26081;DHT22;13991;51.174;4.438;2022-09-09T06:14:04;17.30;99.90
26081;DHT22;13991;51.174;4.438;2022-09-09T06:16:31;17.40;99.90
26081;DHT22;13991;51.174;4.438;2022-09-09T06:19:00;17.40;99.90
26081;DHT22;13991;51.174;4.438;2022-09-09T06:21:30;17.50;99.90
26081;DHT22;13991;51.174;4.438;2022-09-09T06:23:56;17.60;99.90
26081;DHT22;13991;51.174;4.438;2022-09-09T06:26:24;17.60;99.90
26081;DHT22;13991;51.174;4.438;2022-09-09T06:28:52;17.60;99.90
26081;DHT22;13991;51.174;4.438;2022-09-09T06:31:24;17.60;99.90
26081;DHT22;13991;51.174;4.438;2022-09-09T06:33:51;17.60;99.90
26081;DHT22;13991;51.174;4.438;2022-09-09T06:36:31;17.60;99.90
26081;DHT22;13991;51.174;4.438;2022-09-09T06:38:57;17.70;99.90
26081;DHT22;13991;51.174;4.438;2022-09-09T06:41:27;17.70;99.90
26081;DHT22;13991;51.174;4.438;2022-09-09T06:43:53;17.70;99.90
26081;DHT22;13991;51.174;4.438;2022-09-09T06:46:21;17.70;99.90
26081;DHT22;13991;51.174;4.438;2022-09-09T06:48:54;17.70;99.90
26081;DHT22;13991;51.174;4.438;2022-09-09T06:51:26;17.80;99.90
26081;DHT22;13991;51.174;4.438;2022-09-09T06:53:54;17.90;99.90
26081;DHT22;13991;51.174;4.438;2022-09-09T06:56:28;17.80;99.90
26081;DHT22;13991;51.174;4.438;2022-09-09T06:58:56;17.80;99.90
26081;DHT22;13991;51.174;4.438;2022-09-09T07:01:25;17.70;99.90
26081;DHT22;13991;51.174;4.438;2022-09-09T07:03:53;17.80;99.90
26081;DHT22;13991;51.174;4.438;2022-09-09T07:06:28;17.80;99.90
26081;DHT22;13991;51.174;4.438;2022-09-09T07:09:03;17.70;99.90
26081;DHT22;13991;51.174;4.438;2022-09-09T07:11:36;17.70;99.90
26081;DHT22;13991;51.174;4.438;2022-09-09T07:14:02;17.80;99.90
26081;DHT22;13991;51.174;4.438;2022-09-09T07:16:28;17.90;99.90
26081;DHT22;13991;51.174;4.438;2022-09-09T07:18:56;17.80;99.90
26081;DHT22;13991;51.174;4.438;2022-09-09T07:21:27;17.90;99.90
26081;DHT22;13991;51.174;4.438;2022-09-09T07:23:53;17.80;99.90
26081;DHT22;13991;51.174;4.438;2022-09-09T07:26:21;18.00;99.90
26081;DHT22;13991;51.174;4.438;2022-09-09T07:28:48;18.00;99.90
26081;DHT22;13991;51.174;4.438;2022-09-09T07:31:33;18.00;99.90
26081;DHT22;13991;51.174;4.438;2022-09-09T07:34:00;18.10;99.90
26081;DHT22;13991;51.174;4.438;2022-09-09T07:36:33;18.10;99.90
26081;DHT22;13991;51.174;4.438;2022-09-09T07:39:05;18.30;99.90
26081;DHT22;13991;51.174;4.438;2022-09-09T07:41:37;18.10;99.90
26081;DHT22;13991;51.174;4.438;2022-09-09T07:44:15;18.00;99.90
26081;DHT22;13991;51.174;4.438;2022-09-09T07:46:41;17.90;99.90
26081;DHT22;13991;51.174;4.438;2022-09-09T07:49:08;18.00;99.90
26081;DHT22;13991;51.174;4.438;2022-09-09T07:51:37;18.00;99.90
26081;DHT22;13991;51.174;4.438;2022-09-09T07:54:06;18.00;99.90
26081;DHT22;13991;51.174;4.438;2022-09-09T07:56:33;18.00;99.90
26081;DHT22;13991;51.174;4.438;2022-09-09T07:58:59;18.10;99.90
26081;DHT22;13991;51.174;4.438;2022-09-09T08:03:58;18.20;99.90
26081;DHT22;13991;51.174;4.438;2022-09-09T08:06:29;18.20;99.90
26081;DHT22;13991;51.174;4.438;2022-09-09T08:08:55;18.20;99.90
26081;DHT22;13991;51.174;4.438;2022-09-09T08:11:22;18.20;99.90
26081;DHT22;13991;51.174;4.438;2022-09-09T08:13:49;18.30;99.90
26081;DHT22;13991;51.174;4.438;2022-09-09T08:16:17;18.30;99.90
26081;DHT22;13991;51.174;4.438;2022-09-09T08:18:43;18.30;99.90
26081;DHT22;13991;51.174;4.438;2022-09-09T08:23:38;18.30;99.90
26081;DHT22;13991;51.174;4.438;2022-09-09T08:26:11;18.30;99.90
26081;DHT22;13991;51.174;4.438;2022-09-09T08:28:37;18.30;99.90
26081;DHT22;13991;51.174;4.438;2022-09-09T08:31:14;18.30;99.90
26081;DHT22;13991;51.174;4.438;2022-09-09T08:33:41;18.20;99.90
26081;DHT22;13991;51.174;4.438;2022-09-09T08:36:09;18.20;99.90
26081;DHT22;13991;51.174;4.438;2022-09-09T08:38:36;18.30;99.90
26081;DHT22;13991;51.174;4.438;2022-09-09T08:50:19;18.50;99.90
26081;DHT22;13991;51.174;4.438;2022-09-09T08:55:51;18.70;99.90
26081;DHT22;13991;51.174;4.438;2022-09-09T08:58:27;18.50;99.90
26081;DHT22;13991;51.174;4.438;2022-09-09T09:01:00;18.60;99.90
26081;DHT22;13991;51.174;4.438;2022-09-09T09:06:24;18.50;99.90
26081;DHT22;13991;51.174;4.438;2022-09-09T09:11:46;18.50;99.90
26081;DHT22;13991;51.174;4.438;2022-09-09T09:14:25;18.60;99.90
26081;DHT22;13991;51.174;4.438;2022-09-09T09:19:21;18.50;99.90
26081;DHT22;13991;51.174;4.438;2022-09-09T09:22:11;18.50;99.90
26081;DHT22;13991;51.174;4.438;2022-09-09T09:28:22;18.40;99.90
26081;DHT22;13991;51.174;4.438;2022-09-09T09:30:26;18.30;99.90
26081;DHT22;13991;51.174;4.438;2022-09-09T09:32:56;18.30;99.90
26081;DHT22;13991;51.174;4.438;2022-09-09T09:35:23;18.20;99.90
26081;DHT22;13991;51.174;4.438;2022-09-09T09:37:49;18.30;99.90
26081;DHT22;13991;51.174;4.438;2022-09-09T09:40:19;18.30;99.90
26081;DHT22;13991;51.174;4.438;2022-09-09T09:42:59;18.20;99.90
26081;DHT22;13991;51.174;4.438;2022-09-09T09:48:13;18.30;99.90
26081;DHT22;13991;51.174;4.438;2022-09-09T09:50:51;18.30;99.90
26081;DHT22;13991;51.174;4.438;2022-09-09T09:56:12;18.30;99.90
26081;DHT22;13991;51.174;4.438;2022-09-09T09:58:50;18.20;99.90
26081;DHT22;13991;51.174;4.438;2022-09-09T10:01:30;18.20;99.90
26081;DHT22;13991;51.174;4.438;2022-09-09T10:04:15;18.30;99.90
26081;DHT22;13991;51.174;4.438;2022-09-09T10:06:41;18.30;99.90
26081;DHT22;13991;51.174;4.438;2022-09-09T10:09:25;18.20;99.90
26081;DHT22;13991;51.174;4.438;2022-09-09T10:26:07;18.40;99.90
26081;DHT22;13991;51.174;4.438;2022-09-09T10:36:48;18.60;99.90
26081;DHT22;13991;51.174;4.438;2022-09-09T10:44:36;18.80;99.90
26081;DHT22;13991;51.174;4.438;2022-09-09T10:53:02;18.90;99.90
26081;DHT22;13991;51.174;4.438;2022-09-09T10:55:43;18.90;99.90
26081;DHT22;13991;51.174;4.438;2022-09-09T11:04:25;19.10;99.90
26081;DHT22;13991;51.174;4.438;2022-09-09T11:06:54;19.10;99.90
26081;DHT22;13991;51.174;4.438;2022-09-09T11:09:38;19.10;99.90
26081;DHT22;13991;51.174;4.438;2022-09-09T11:12:05;19.10;99.90
26081;DHT22;13991;51.174;4.438;2022-09-09T11:14:43;19.00;99.90
26081;DHT22;13991;51.174;4.438;2022-09-09T11:17:16;19.00;99.90
26081;DHT22;13991;51.174;4.438;2022-09-09T11:19:44;19.10;99.90
26081;DHT22;13991;51.174;4.438;2022-09-09T11:24:59;19.30;99.90
26081;DHT22;13991;51.174;4.438;2022-09-09T11:31:00;19.60;99.90
26081;DHT22;13991;51.174;4.438;2022-09-09T11:36:27;19.90;99.90
26081;DHT22;13991;51.174;4.438;2022-09-09T11:39:11;19.90;99.90
26081;DHT22;13991;51.174;4.438;2022-09-09T11:41:43;19.90;99.90
26081;DHT22;13991;51.174;4.438;2022-09-09T11:44:17;19.80;99.90
26081;DHT22;13991;51.174;4.438;2022-09-09T11:46:49;19.80;99.90
26081;DHT22;13991;51.174;4.438;2022-09-09T11:49:29;19.90;99.90
26081;DHT22;13991;51.174;4.438;2022-09-09T11:52:12;19.90;99.90
26081;DHT22;13991;51.174;4.438;2022-09-09T11:54:48;20.00;99.90
26081;DHT22;13991;51.174;4.438;2022-09-09T11:57:33;20.10;99.90
26081;DHT22;13991;51.174;4.438;2022-09-09T12:00:00;20.20;99.90
26081;DHT22;13991;51.174;4.438;2022-09-09T12:02:28;20.30;99.90
26081;DHT22;13991;51.174;4.438;2022-09-09T12:05:07;20.20;99.90
26081;DHT22;13991;51.174;4.438;2022-09-09T12:07:38;20.10;99.90
26081;DHT22;13991;51.174;4.438;2022-09-09T12:12:35;20.30;99.90
26081;DHT22;13991;51.174;4.438;2022-09-09T12:15:21;20.40;99.90
26081;DHT22;13991;51.174;4.438;2022-09-09T12:17:52;20.40;99.90
26081;DHT22;13991;51.174;4.438;2022-09-09T12:20:26;20.40;99.90
26081;DHT22;13991;51.174;4.438;2022-09-09T12:23:30;20.40;99.90
26081;DHT22;13991;51.174;4.438;2022-09-09T12:32:16;20.90;99.90
26081;DHT22;13991;51.174;4.438;2022-09-09T12:34:47;20.80;99.90
26081;DHT22;13991;51.174;4.438;2022-09-09T12:37:18;21.00;99.90
26081;DHT22;13991;51.174;4.438;2022-09-09T12:39:58;21.00;99.90
26081;DHT22;13991;51.174;4.438;2022-09-09T12:42:25;20.90;99.90
26081;DHT22;13991;51.174;4.438;2022-09-09T12:44:59;20.80;99.90
26081;DHT22;13991;51.174;4.438;2022-09-09T12:47:47;20.90;99.90
26081;DHT22;13991;51.174;4.438;2022-09-09T12:50:35;20.80;99.90
26081;DHT22;13991;51.174;4.438;2022-09-09T12:53:40;20.70;99.90
26081;DHT22;13991;51.174;4.438;2022-09-09T12:56:08;20.70;99.90
26081;DHT22;13991;51.174;4.438;2022-09-09T12:58:35;20.80;99.90
26081;DHT22;13991;51.174;4.438;2022-09-09T13:01:03;20.80;99.90
26081;DHT22;13991;51.174;4.438;2022-09-09T13:03:41;20.90;99.90
26081;DHT22;13991;51.174;4.438;2022-09-09T13:06:13;20.90;99.90
26081;DHT22;13991;51.174;4.438;2022-09-09T13:08:43;21.20;99.90
26081;DHT22;13991;51.174;4.438;2022-09-09T13:11:14;21.20;99.90
26081;DHT22;13991;51.174;4.438;2022-09-09T13:13:42;21.20;99.90
26081;DHT22;13991;51.174;4.438;2022-09-09T13:16:40;21.30;99.90
26081;DHT22;13991;51.174;4.438;2022-09-09T13:19:08;21.50;99.90
26081;DHT22;13991;51.174;4.438;2022-09-09T13:21:39;21.40;99.90
26081;DHT22;13991;51.174;4.438;2022-09-09T13:24:07;21.40;99.90
26081;DHT22;13991;51.174;4.438;2022-09-09T13:26:54;21.20;99.90
26081;DHT22;13991;51.174;4.438;2022-09-09T13:29:21;21.40;99.90
26081;DHT22;13991;51.174;4.438;2022-09-09T13:31:48;21.60;99.90
26081;DHT22;13991;51.174;4.438;2022-09-09T13:34:29;21.80;99.90
26081;DHT22;13991;51.174;4.438;2022-09-09T13:37:03;22.10;99.90
26081;DHT22;13991;51.174;4.438;2022-09-09T13:39:33;22.20;99.90
26081;DHT22;13991;51.174;4.438;2022-09-09T13:41:59;22.20;99.90
26081;DHT22;13991;51.174;4.438;2022-09-09T13:44:30;22.20;99.90
26081;DHT22;13991;51.174;4.438;2022-09-09T13:47:05;22.20;99.90
26081;DHT22;13991;51.174;4.438;2022-09-09T13:49:32;22.00;99.90
26081;DHT22;13991;51.174;4.438;2022-09-09T13:52:11;21.80;99.90
26081;DHT22;13991;51.174;4.438;2022-09-09T13:54:40;21.60;99.90
26081;DHT22;13991;51.174;4.438;2022-09-09T13:57:21;21.80;99.90
26081;DHT22;13991;51.174;4.438;2022-09-09T13:59:47;21.70;99.90
26081;DHT22;13991;51.174;4.438;2022-09-09T14:02:14;21.70;99.90
26081;DHT22;13991;51.174;4.438;2022-09-09T14:04:40;21.70;99.90
26081;DHT22;13991;51.174;4.438;2022-09-09T14:07:12;21.60;99.90
26081;DHT22;13991;51.174;4.438;2022-09-09T14:09:40;21.60;99.90
26081;DHT22;13991;51.174;4.438;2022-09-09T14:12:08;21.60;99.90
26081;DHT22;13991;51.174;4.438;2022-09-09T14:14:35;21.70;99.90
26081;DHT22;13991;51.174;4.438;2022-09-09T14:17:00;21.60;99.90
26081;DHT22;13991;51.174;4.438;2022-09-09T14:19:26;21.60;99.90
26081;DHT22;13991;51.174;4.438;2022-09-09T14:21:51;21.60;99.90
26081;DHT22;13991;51.174;4.438;2022-09-09T14:24:17;21.60;99.90
26081;DHT22;13991;51.174;4.438;2022-09-09T14:26:43;21.60;99.90
26081;DHT22;13991;51.174;4.438;2022-09-09T14:29:08;21.70;99.90
26081;DHT22;13991;51.174;4.438;2022-09-09T14:31:34;21.80;99.90
26081;DHT22;13991;51.174;4.438;2022-09-09T14:34:00;22.00;99.90
26081;DHT22;13991;51.174;4.438;2022-09-09T14:36:25;21.90;99.90
26081;DHT22;13991;51.174;4.438;2022-09-09T14:38:51;21.90;99.90
26081;DHT22;13991;51.174;4.438;2022-09-09T14:41:18;21.80;99.90
26081;DHT22;13991;51.174;4.438;2022-09-09T14:43:45;21.60;99.90
26081;DHT22;13991;51.174;4.438;2022-09-09T14:46:13;21.60;99.90
26081;DHT22;13991;51.174;4.438;2022-09-09T14:48:40;21.70;99.90
26081;DHT22;13991;51.174;4.438;2022-09-09T14:51:12;21.70;99.90
26081;DHT22;13991;51.174;4.438;2022-09-09T14:53:39;21.90;99.90
26081;DHT22;13991;51.174;4.438;2022-09-09T14:56:14;22.00;99.90
26081;DHT22;13991;51.174;4.438;2022-09-09T14:58:40;22.00;99.90
26081;DHT22;13991;51.174;4.438;2022-09-09T15:01:08;21.90;99.90
26081;DHT22;13991;51.174;4.438;2022-09-09T15:03:36;21.70;99.90
26081;DHT22;13991;51.174;4.438;2022-09-09T15:06:13;21.70;99.90
26081;DHT22;13991;51.174;4.438;2022-09-09T15:08:41;21.60;99.90
26081;DHT22;13991;51.174;4.438;2022-09-09T15:11:08;21.60;99.90
26081;DHT22;13991;51.174;4.438;2022-09-09T15:13:35;21.50;99.90
26081;DHT22;13991;51.174;4.438;2022-09-09T15:16:14;21.50;99.90
26081;DHT22;13991;51.174;4.438;2022-09-09T15:18:41;21.40;99.90
26081;DHT22;13991;51.174;4.438;2022-09-09T15:21:18;21.30;99.90
26081;DHT22;13991;51.174;4.438;2022-09-09T15:23:47;20.90;99.90
26081;DHT22;13991;51.174;4.438;2022-09-09T15:26:14;20.50;99.90
26081;DHT22;13991;51.174;4.438;2022-09-09T15:28:41;20.50;99.90
26081;DHT22;13991;51.174;4.438;2022-09-09T15:31:29;20.40;99.90
26081;DHT22;13991;51.174;4.438;2022-09-09T15:33:58;20.60;99.90
26081;DHT22;13991;51.174;4.438;2022-09-09T15:36:32;20.90;99.90
26081;DHT22;13991;51.174;4.438;2022-09-09T15:38:59;21.10;99.90
26081;DHT22;13991;51.174;4.438;2022-09-09T15:41:26;21.20;99.90
26081;DHT22;13991;51.174;4.438;2022-09-09T15:43:54;21.10;99.90
26081;DHT22;13991;51.174;4.438;2022-09-09T15:46:28;20.90;99.90
26081;DHT22;13991;51.174;4.438;2022-09-09T15:49:08;20.70;99.90
26081;DHT22;13991;51.174;4.438;2022-09-09T15:51:35;20.50;99.90
26081;DHT22;13991;51.174;4.438;2022-09-09T15:54:00;20.70;99.90
26081;DHT22;13991;51.174;4.438;2022-09-09T15:56:27;20.60;99.90
26081;DHT22;13991;51.174;4.438;2022-09-09T15:58:55;20.60;99.90
26081;DHT22;13991;51.174;4.438;2022-09-09T16:01:21;20.60;99.90
26081;DHT22;13991;51.174;4.438;2022-09-09T16:03:47;20.60;99.90
26081;DHT22;13991;51.174;4.438;2022-09-09T16:06:17;20.50;99.90
26081;DHT22;13991;51.174;4.438;2022-09-09T16:08:44;20.40;99.90
26081;DHT22;13991;51.174;4.438;2022-09-09T16:11:17;20.10;99.90
26081;DHT22;13991;51.174;4.438;2022-09-09T16:13:45;19.70;99.90
26081;DHT22;13991;51.174;4.438;2022-09-09T16:16:12;19.90;99.90
26081;DHT22;13991;51.174;4.438;2022-09-09T16:18:46;20.00;99.90
26081;DHT22;13991;51.174;4.438;2022-09-09T16:21:18;19.90;99.90
26081;DHT22;13991;51.174;4.438;2022-09-09T16:23:45;19.80;99.90
26081;DHT22;13991;51.174;4.438;2022-09-09T16:26:12;19.80;99.90
26081;DHT22;13991;51.174;4.438;2022-09-09T16:28:39;19.80;99.90
26081;DHT22;13991;51.174;4.438;2022-09-09T16:31:11;19.90;99.90
26081;DHT22;13991;51.174;4.438;2022-09-09T16:33:39;19.80;99.90
26081;DHT22;13991;51.174;4.438;2022-09-09T16:36:14;19.80;99.90
26081;DHT22;13991;51.174;4.438;2022-09-09T16:38:40;19.90;99.90
26081;DHT22;13991;51.174;4.438;2022-09-09T16:41:08;19.80;99.90
26081;DHT22;13991;51.174;4.438;2022-09-09T16:43:35;19.80;99.90
26081;DHT22;13991;51.174;4.438;2022-09-09T16:48:58;19.40;99.90
26081;DHT22;13991;51.174;4.438;2022-09-09T16:51:26;19.10;99.90
26081;DHT22;13991;51.174;4.438;2022-09-09T16:53:53;19.20;99.90
26081;DHT22;13991;51.174;4.438;2022-09-09T16:56:24;19.20;99.90
26081;DHT22;13991;51.174;4.438;2022-09-09T16:58:55;19.30;99.90
26081;DHT22;13991;51.174;4.438;2022-09-09T17:01:29;19.30;99.90
26081;DHT22;13991;51.174;4.438;2022-09-09T17:04:00;19.30;99.90
26081;DHT22;13991;51.174;4.438;2022-09-09T17:06:30;19.40;99.90
26081;DHT22;13991;51.174;4.438;2022-09-09T17:08:57;19.50;99.90
26081;DHT22;13991;51.174;4.438;2022-09-09T17:11:23;19.60;99.90
26081;DHT22;13991;51.174;4.438;2022-09-09T17:13:50;19.70;99.90
26081;DHT22;13991;51.174;4.438;2022-09-09T17:16:17;19.70;99.90
26081;DHT22;13991;51.174;4.438;2022-09-09T17:18:43;19.70;99.90
26081;DHT22;13991;51.174;4.438;2022-09-09T17:21:15;19.70;99.90
26081;DHT22;13991;51.174;4.438;2022-09-09T17:23:41;19.70;99.90
26081;DHT22;13991;51.174;4.438;2022-09-09T17:26:10;19.60;99.90
26081;DHT22;13991;51.174;4.438;2022-09-09T17:28:40;19.60;99.90
26081;DHT22;13991;51.174;4.438;2022-09-09T17:31:07;19.60;99.90
26081;DHT22;13991;51.174;4.438;2022-09-09T17:33:35;19.60;99.90
26081;DHT22;13991;51.174;4.438;2022-09-09T17:36:13;19.60;99.90
26081;DHT22;13991;51.174;4.438;2022-09-09T17:38:40;19.60;99.90
26081;DHT22;13991;51.174;4.438;2022-09-09T17:41:10;19.60;99.90
26081;DHT22;13991;51.174;4.438;2022-09-09T17:43:37;19.60;99.90
26081;DHT22;13991;51.174;4.438;2022-09-09T17:46:09;19.60;99.90
26081;DHT22;13991;51.174;4.438;2022-09-09T17:48:36;19.60;99.90
26081;DHT22;13991;51.174;4.438;2022-09-09T17:51:04;19.50;99.90
26081;DHT22;13991;51.174;4.438;2022-09-09T17:53:30;19.50;99.90
26081;DHT22;13991;51.174;4.438;2022-09-09T17:56:02;19.50;99.90
26081;DHT22;13991;51.174;4.438;2022-09-09T17:58:28;19.40;99.90
26081;DHT22;13991;51.174;4.438;2022-09-09T18:00:54;19.40;99.90
26081;DHT22;13991;51.174;4.438;2022-09-09T18:03:20;19.50;99.90
26081;DHT22;13991;51.174;4.438;2022-09-09T18:05:46;19.50;99.90
26081;DHT22;13991;51.174;4.438;2022-09-09T18:08:11;19.50;99.90
26081;DHT22;13991;51.174;4.438;2022-09-09T18:10:38;19.40;99.90